createdAt,value
2023-04-11T00:02:24.049Z,13.80
2023-04-11T00:05:03.364Z,13.70
2023-04-11T00:07:42.065Z,13.60
2023-04-11T00:10:13.554Z,13.30
2023-04-11T00:12:46.790Z,13.20
2023-04-11T00:15:24.556Z,13.10
2023-04-11T00:17:53.898Z,12.90
2023-04-11T00:20:29.943Z,12.80
2023-04-11T00:22:59.336Z,12.70
2023-04-11T00:25:33.166Z,12.60
2023-04-11T00:28:13.206Z,12.60
2023-04-11T00:30:49.836Z,12.60
2023-04-11T00:33:28.007Z,12.50
2023-04-11T00:36:06.576Z,12.50
2023-04-11T00:38:46.502Z,12.60
2023-04-11T00:41:16.801Z,12.50
2023-04-11T00:43:47.242Z,12.50
2023-04-11T00:46:17.133Z,12.50
2023-04-11T00:48:50.851Z,12.50
2023-04-11T00:51:29.338Z,12.40
2023-04-11T00:54:02.302Z,12.30
2023-04-11T00:56:31.848Z,12.10
2023-04-11T00:59:12.077Z,12.10
2023-04-11T01:01:50.408Z,12.00
2023-04-11T01:04:29.516Z,12.00
2023-04-11T01:07:04.170Z,11.90
2023-04-11T01:09:35.849Z,11.90
2023-04-11T01:12:11.857Z,12.00
2023-04-11T01:14:51.536Z,12.00
2023-04-11T01:17:30.278Z,11.90
2023-04-11T01:20:03.164Z,11.90
2023-04-11T01:22:35.917Z,11.90
2023-04-11T01:25:17.018Z,11.80
2023-04-11T01:27:48.333Z,11.90
2023-04-11T01:30:18.569Z,12.00
2023-04-11T01:32:47.207Z,12.10
2023-04-11T01:35:19.803Z,12.00
2023-04-11T01:37:51.076Z,12.10
2023-04-11T01:40:23.776Z,12.00
2023-04-11T01:43:03.256Z,12.10
2023-04-11T01:45:33.959Z,12.20
2023-04-11T01:48:16.245Z,12.20
2023-04-11T01:50:45.456Z,12.40
2023-04-11T01:53:23.648Z,12.40
2023-04-11T01:55:54.673Z,12.40
2023-04-11T01:58:26.432Z,12.30
2023-04-11T02:01:06.424Z,12.30
2023-04-11T02:03:44.638Z,12.20
2023-04-11T02:06:17.724Z,12.10
2023-04-11T02:08:54.358Z,11.90
2023-04-11T02:11:25.335Z,12.00
2023-04-11T02:13:56.152Z,12.10
2023-04-11T02:16:29.845Z,12.20
2023-04-11T02:19:08.280Z,12.30
2023-04-11T02:21:37.002Z,12.20
2023-04-11T02:24:05.181Z,12.20
2023-04-11T02:26:45.018Z,12.30
2023-04-11T02:29:14.286Z,12.20
2023-04-11T02:31:52.860Z,12.10
2023-04-11T02:34:24.213Z,12.00
2023-04-11T02:36:57.110Z,11.90
2023-04-11T02:39:26.685Z,11.80
2023-04-11T02:42:09.145Z,11.70
2023-04-11T02:44:47.354Z,11.50
2023-04-11T02:47:23.015Z,11.50
2023-04-11T02:49:53.538Z,11.60
2023-04-11T02:52:30.027Z,11.60
2023-04-11T02:54:59.132Z,11.60
2023-04-11T02:57:30.436Z,11.30
2023-04-11T02:59:59.697Z,11.20
2023-04-11T03:02:46.069Z,11.40
2023-04-11T03:05:15.027Z,11.50
2023-04-11T03:07:47.055Z,11.40
2023-04-11T03:10:21.967Z,11.40
2023-04-11T03:12:51.734Z,11.30
2023-04-11T03:15:32.305Z,11.40
2023-04-11T03:18:11.422Z,11.50
2023-04-11T03:20:53.456Z,11.30
2023-04-11T03:23:21.964Z,11.30
2023-04-11T03:25:56.789Z,11.30
2023-04-11T03:28:37.218Z,11.20
2023-04-11T03:31:16.156Z,11.20
2023-04-11T03:33:54.832Z,11.00
2023-04-11T03:36:30.015Z,11.00
2023-04-11T03:39:14.711Z,11.00
2023-04-11T03:41:46.342Z,10.80
2023-04-11T03:44:17.204Z,10.90
2023-04-11T03:46:48.666Z,10.80
2023-04-11T03:49:18.639Z,10.70
2023-04-11T03:51:54.022Z,10.80
2023-04-11T03:54:23.121Z,10.80
2023-04-11T03:57:01.401Z,10.80
2023-04-11T03:59:42.488Z,10.70
2023-04-11T04:02:18.906Z,10.80
2023-04-11T04:04:58.829Z,10.70
2023-04-11T04:07:32.025Z,10.80
2023-04-11T04:10:17.264Z,10.80
2023-04-11T04:13:00.323Z,10.60
2023-04-11T04:15:44.308Z,10.80
2023-04-11T04:18:15.362Z,10.60
2023-04-11T04:20:56.714Z,10.70
2023-04-11T04:23:39.427Z,10.70
2023-04-11T04:26:34.503Z,10.70
2023-04-11T04:29:38.158Z,10.70
2023-04-11T04:32:14.706Z,10.70
2023-04-11T04:34:55.106Z,10.60
2023-04-11T04:37:39.601Z,10.60
2023-04-11T04:40:31.784Z,10.60
2023-04-11T04:43:11.836Z,10.50
2023-04-11T04:45:51.789Z,10.50
2023-04-11T04:48:27.297Z,10.50
2023-04-11T04:50:58.593Z,10.40
2023-04-11T04:53:27.220Z,10.50
2023-04-11T04:56:02.791Z,10.50
2023-04-11T04:58:47.086Z,10.40
2023-04-11T05:01:17.744Z,10.30
2023-04-11T05:03:59.037Z,10.30
2023-04-11T05:06:45.795Z,10.20
2023-04-11T05:09:24.227Z,10.30
2023-04-11T05:12:07.318Z,10.30
2023-04-11T05:14:39.921Z,10.30
2023-04-11T05:17:10.285Z,10.20
2023-04-11T05:19:40.852Z,10.50
2023-04-11T05:22:09.864Z,10.60
2023-04-11T05:24:44.840Z,10.60
2023-04-11T05:27:14.953Z,10.60
2023-04-11T05:29:50.803Z,10.60
2023-04-11T05:32:30.360Z,10.30
2023-04-11T05:35:11.055Z,10.30
2023-04-11T05:37:55.919Z,10.20
2023-04-11T05:40:24.639Z,10.20
2023-04-11T05:42:57.093Z,10.30
2023-04-11T05:45:38.166Z,10.30
2023-04-11T05:48:16.620Z,10.30
2023-04-11T05:50:47.207Z,10.40
2023-04-11T05:53:16.661Z,10.40
2023-04-11T05:55:48.532Z,10.50
2023-04-11T05:58:27.132Z,10.50
2023-04-11T06:01:07.690Z,10.50
2023-04-11T06:03:47.287Z,10.40
2023-04-11T06:06:18.877Z,10.20
2023-04-11T06:08:47.611Z,10.10
2023-04-11T06:11:28.096Z,10.20
2023-04-11T06:13:56.782Z,10.30
2023-04-11T06:16:36.884Z,10.30
2023-04-11T06:19:05.841Z,10.30
2023-04-11T06:21:36.495Z,10.30
2023-04-11T06:24:10.108Z,10.30
2023-04-11T06:26:48.765Z,10.30
2023-04-11T06:29:27.087Z,10.10
2023-04-11T06:32:06.256Z,10.20
2023-04-11T06:34:44.913Z,10.30
2023-04-11T06:37:26.286Z,10.30
2023-04-11T06:39:58.132Z,10.30
2023-04-11T06:42:36.329Z,10.30
2023-04-11T06:45:15.851Z,10.10
2023-04-11T06:47:44.502Z,10.30
2023-04-11T06:50:13.948Z,10.40
2023-04-11T06:52:44.785Z,10.40
2023-04-11T06:55:19.680Z,10.50
2023-04-11T06:57:48.623Z,10.50
2023-04-11T07:00:17.289Z,10.50
2023-04-11T07:02:51.194Z,10.50
2023-04-11T07:05:22.270Z,10.50
2023-04-11T07:07:51.922Z,10.40
2023-04-11T07:10:21.028Z,10.60
2023-04-11T07:12:59.155Z,10.90
2023-04-11T07:15:28.755Z,10.80
2023-04-11T07:17:57.638Z,11.10
2023-04-11T07:20:27.428Z,11.10
2023-04-11T07:22:59.018Z,11.30
2023-04-11T07:25:30.800Z,11.40
2023-04-11T07:28:00.238Z,11.60
2023-04-11T07:30:30.587Z,11.60
2023-04-11T07:33:03.279Z,11.50
2023-04-11T07:35:39.023Z,11.60
2023-04-11T07:38:11.030Z,11.90
2023-04-11T07:40:45.497Z,11.90
2023-04-11T07:43:23.877Z,11.70
2023-04-11T07:45:52.928Z,11.70
2023-04-11T07:48:32.618Z,11.30
2023-04-11T07:51:01.832Z,11.30
2023-04-11T07:53:41.516Z,11.30
2023-04-11T07:56:13.527Z,11.30
2023-04-11T07:58:42.455Z,11.30
2023-04-11T08:01:20.981Z,11.30
2023-04-11T08:04:00.238Z,11.50
2023-04-11T08:06:32.128Z,11.70
2023-04-11T08:09:12.277Z,11.50
2023-04-11T08:11:41.334Z,11.60
2023-04-11T08:14:19.529Z,11.60
2023-04-11T08:16:49.832Z,11.70
2023-04-11T08:19:24.581Z,11.70
2023-04-11T08:22:02.872Z,11.60
2023-04-11T08:24:34.298Z,11.40
2023-04-11T08:27:12.635Z,11.40
2023-04-11T08:29:43.053Z,11.30
2023-04-11T08:32:12.203Z,11.30
2023-04-11T08:34:44.493Z,11.30
2023-04-11T08:37:22.778Z,11.30
2023-04-11T08:40:02.483Z,11.80
2023-04-11T08:42:31.511Z,11.90
2023-04-11T08:45:10.434Z,12.00
2023-04-11T08:47:39.200Z,12.20
2023-04-11T08:50:08.811Z,12.30
2023-04-11T08:52:39.582Z,12.70
2023-04-11T08:55:16.651Z,12.90
2023-04-11T08:57:48.049Z,12.80
2023-04-11T09:00:29.093Z,12.70
2023-04-11T09:03:08.606Z,12.60
2023-04-11T09:05:38.945Z,13.00
2023-04-11T09:08:17.690Z,13.30
2023-04-11T09:11:02.269Z,13.00
2023-04-11T09:13:30.832Z,13.10
2023-04-11T09:16:09.173Z,13.40
2023-04-11T09:18:46.546Z,13.10
2023-04-11T09:21:24.956Z,13.40
2023-04-11T09:24:14.600Z,13.60
2023-04-11T09:27:06.948Z,13.40
2023-04-11T09:29:40.245Z,13.50
2023-04-11T09:32:32.112Z,13.80
2023-04-11T09:35:11.148Z,14.30
2023-04-11T09:37:45.049Z,14.50
2023-04-11T09:40:16.657Z,13.90
2023-04-11T09:42:49.130Z,13.60
2023-04-11T09:45:27.407Z,13.50
2023-04-11T09:47:58.954Z,13.90
2023-04-11T09:50:38.685Z,14.10
2023-04-11T09:53:12.583Z,14.30
2023-04-11T09:55:50.965Z,14.40
2023-04-11T09:58:24.562Z,14.30
2023-04-11T10:01:02.365Z,14.10
2023-04-11T10:03:42.034Z,14.30
2023-04-11T10:06:24.127Z,14.00
2023-04-11T10:09:05.648Z,13.50
2023-04-11T10:11:34.095Z,13.30
2023-04-11T10:14:06.145Z,13.20
2023-04-11T10:17:11.824Z,13.30
2023-04-11T10:19:43.012Z,13.50
2023-04-11T10:22:31.928Z,13.60
2023-04-11T10:25:18.396Z,14.10
2023-04-11T10:27:48.973Z,14.30
2023-04-11T10:30:46.158Z,14.10
2023-04-11T10:33:17.936Z,14.10
2023-04-11T10:36:02.203Z,14.20
2023-04-11T10:38:50.044Z,14.00
2023-04-11T10:41:29.293Z,14.10
2023-04-11T10:44:24.891Z,14.00
2023-04-11T10:46:55.190Z,13.80
2023-04-11T10:49:36.751Z,13.80
2023-04-11T10:52:19.038Z,14.00
2023-04-11T10:55:14.749Z,13.40
2023-04-11T10:58:07.379Z,13.50
2023-04-11T11:00:50.734Z,13.30
2023-04-11T11:03:30.675Z,13.40
2023-04-11T11:06:11.491Z,13.50
2023-04-11T11:08:41.844Z,13.60
2023-04-11T11:11:15.192Z,13.60
2023-04-11T11:14:03.114Z,13.50
2023-04-11T11:16:37.725Z,13.50
2023-04-11T11:19:07.108Z,13.50
2023-04-11T11:21:39.789Z,13.30
2023-04-11T11:24:11.425Z,12.80
2023-04-11T11:26:40.812Z,12.40
2023-04-11T11:29:10.283Z,12.40
2023-04-11T11:31:41.873Z,12.60
2023-04-11T11:36:56.856Z,14.00
2023-04-11T11:39:35.603Z,13.70
2023-04-11T11:42:08.596Z,13.50
2023-04-11T11:44:46.882Z,13.30
2023-04-11T11:47:25.832Z,13.40
2023-04-11T11:49:55.396Z,13.30
2023-04-11T11:52:36.866Z,13.30
2023-04-11T11:55:29.951Z,13.40
2023-04-11T11:58:08.128Z,13.80
2023-04-11T12:00:40.264Z,14.00
2023-04-11T12:03:11.606Z,14.40
2023-04-11T12:05:44.585Z,14.60
2023-04-11T12:08:25.902Z,14.70
2023-04-11T12:10:55.008Z,14.70
2023-04-11T12:13:33.685Z,14.30
2023-04-11T12:16:07.120Z,14.30
2023-04-11T12:18:36.416Z,14.10
2023-04-11T12:21:11.028Z,13.90
2023-04-11T12:23:41.842Z,14.00
2023-04-11T12:26:21.230Z,14.30
2023-04-11T12:29:02.095Z,14.60
2023-04-11T12:31:40.667Z,14.60
2023-04-11T12:34:10.402Z,15.10
2023-04-11T12:36:48.586Z,14.80
2023-04-11T12:39:19.911Z,14.40
2023-04-11T12:41:49.718Z,14.60
2023-04-11T12:44:21.871Z,14.40
2023-04-11T12:47:00.243Z,14.60
2023-04-11T12:49:38.532Z,14.50
2023-04-11T12:52:10.323Z,14.70
2023-04-11T12:54:46.636Z,14.20
2023-04-11T12:57:17.044Z,14.00
2023-04-11T12:59:48.392Z,13.90
2023-04-11T13:02:23.317Z,13.40
2023-04-11T13:04:54.568Z,12.70
2023-04-11T13:07:33.025Z,12.70
2023-04-11T13:10:14.318Z,13.00
2023-04-11T13:12:58.478Z,13.40
2023-04-11T13:15:36.997Z,13.60
2023-04-11T13:18:07.403Z,14.20
2023-04-11T13:20:46.328Z,15.10
2023-04-11T13:23:24.594Z,15.40
2023-04-11T13:26:04.350Z,16.00
2023-04-11T13:28:42.652Z,15.70
2023-04-11T13:31:26.563Z,15.40
2023-04-11T13:34:04.846Z,15.50
2023-04-11T13:36:33.788Z,15.40
2023-04-11T13:39:06.029Z,15.30
2023-04-11T13:41:46.169Z,15.70
2023-04-11T13:44:24.551Z,15.80
2023-04-11T13:47:03.649Z,15.60
2023-04-11T13:49:35.644Z,15.80
2023-04-11T13:52:05.338Z,16.00
2023-04-11T13:54:34.450Z,15.90
2023-04-11T13:57:07.761Z,15.30
2023-04-11T13:59:36.958Z,15.30
2023-04-11T14:02:05.352Z,15.50
2023-04-11T14:04:43.924Z,15.50
2023-04-11T14:07:15.066Z,15.60
2023-04-11T14:09:52.346Z,15.80
2023-04-11T14:12:28.254Z,16.00
2023-04-11T14:15:07.940Z,16.00
2023-04-11T14:17:37.514Z,16.00
2023-04-11T14:20:16.272Z,16.00
2023-04-11T14:22:46.442Z,16.30
2023-04-11T14:25:20.869Z,16.00
2023-04-11T14:27:50.766Z,15.60
2023-04-11T14:30:25.691Z,15.50
2023-04-11T14:33:01.054Z,15.30
2023-04-11T14:35:39.226Z,15.40
2023-04-11T14:38:13.736Z,15.40
2023-04-11T14:40:42.430Z,15.30
2023-04-11T14:43:19.513Z,15.30
2023-04-11T14:45:48.022Z,14.90
2023-04-11T14:48:27.469Z,14.90
2023-04-11T14:50:56.331Z,15.10
2023-04-11T14:53:26.583Z,15.30
2023-04-11T14:55:58.490Z,15.40
2023-04-11T14:58:28.260Z,15.60
2023-04-11T15:00:56.744Z,15.60
2023-04-11T15:03:25.321Z,15.50
2023-04-11T15:05:53.827Z,15.30
2023-04-11T15:08:21.992Z,15.20
2023-04-11T15:10:54.654Z,15.20
2023-04-11T15:13:23.402Z,15.10
2023-04-11T15:15:53.443Z,15.10
2023-04-11T15:18:23.185Z,15.20
2023-04-11T15:20:52.583Z,15.00
2023-04-11T15:23:22.359Z,15.10
2023-04-11T15:25:53.519Z,15.20
2023-04-11T15:28:21.997Z,15.20
2023-04-11T15:30:51.019Z,15.40
2023-04-11T15:33:22.029Z,15.60
2023-04-11T15:35:50.406Z,15.40
2023-04-11T15:38:18.564Z,15.30
2023-04-11T15:40:49.823Z,15.20
2023-04-11T15:43:18.013Z,15.20
2023-04-11T15:45:46.266Z,15.10
2023-04-11T15:48:14.484Z,15.30
2023-04-11T15:50:44.233Z,15.20
2023-04-11T15:53:13.404Z,15.20
2023-04-11T15:55:42.030Z,15.20
2023-04-11T15:58:10.533Z,15.10
2023-04-11T16:00:39.406Z,15.20
2023-04-11T16:03:10.802Z,15.00
2023-04-11T16:05:40.861Z,15.00
2023-04-11T16:08:10.632Z,14.90
2023-04-11T16:10:39.306Z,14.70
2023-04-11T16:13:07.610Z,14.50
2023-04-11T16:15:36.120Z,14.50
2023-04-11T16:18:04.853Z,14.50
2023-04-11T16:20:33.657Z,14.60
2023-04-11T16:23:01.924Z,14.80
2023-04-11T16:25:31.664Z,14.80
2023-04-11T16:27:59.881Z,14.80
2023-04-11T16:30:28.134Z,14.80
2023-04-11T16:32:56.498Z,14.90
2023-04-11T16:35:24.734Z,14.90
2023-04-11T16:37:53.143Z,14.90
2023-04-11T16:40:21.317Z,14.80
2023-04-11T16:42:50.876Z,14.70
2023-04-11T16:45:19.040Z,14.70
2023-04-11T16:47:47.431Z,14.70
2023-04-11T16:50:15.974Z,14.60
2023-04-11T16:52:44.244Z,14.50
2023-04-11T16:55:13.270Z,14.50
2023-04-11T16:57:41.644Z,14.60
2023-04-11T17:00:15.336Z,14.60
2023-04-11T17:02:43.815Z,14.50
2023-04-11T17:05:12.112Z,14.50
2023-04-11T17:07:41.768Z,14.60
2023-04-11T17:10:10.901Z,14.40
2023-04-11T17:12:39.348Z,14.40
2023-04-11T17:15:08.599Z,14.50
2023-04-11T17:17:38.246Z,14.30
2023-04-11T17:20:09.550Z,14.40
2023-04-11T17:22:41.294Z,14.20
2023-04-11T17:25:10.655Z,14.40
2023-04-11T17:27:38.814Z,14.40
2023-04-11T17:30:09.521Z,14.50
2023-04-11T17:32:40.922Z,14.30
2023-04-11T17:35:09.449Z,14.20
2023-04-11T17:37:38.231Z,14.10
2023-04-11T17:40:13.275Z,13.90
2023-04-11T17:42:41.827Z,13.70
2023-04-11T17:45:17.607Z,13.80
2023-04-11T17:47:48.359Z,13.80
2023-04-11T17:50:17.471Z,13.80
2023-04-11T17:52:46.663Z,13.70
2023-04-11T17:55:15.597Z,13.80
2023-04-11T17:57:43.990Z,13.70
2023-04-11T18:00:19.270Z,13.70
2023-04-11T18:02:49.619Z,13.70
2023-04-11T18:05:23.970Z,13.70
2023-04-11T18:07:54.145Z,13.70
2023-04-11T18:10:23.018Z,13.60
2023-04-11T18:12:52.453Z,13.60
2023-04-11T18:15:20.950Z,13.60
2023-04-11T18:17:51.518Z,13.70
2023-04-11T18:20:19.944Z,13.50
2023-04-11T18:22:54.515Z,13.50
2023-04-11T18:25:23.234Z,13.50
2023-04-11T18:27:51.465Z,13.50
2023-04-11T18:30:20.261Z,13.50
2023-04-11T18:32:51.856Z,13.50
2023-04-11T18:35:20.358Z,13.50
2023-04-11T18:37:48.534Z,13.50
2023-04-11T18:40:17.694Z,13.40
2023-04-11T18:42:47.235Z,13.30
2023-04-11T18:45:18.124Z,13.00
2023-04-11T18:47:46.989Z,12.70
2023-04-11T18:50:17.278Z,12.60
2023-04-11T18:52:46.455Z,12.60
2023-04-11T18:55:15.164Z,12.70
2023-04-11T18:57:47.728Z,12.80
2023-04-11T19:00:19.461Z,12.90
2023-04-11T19:02:50.172Z,12.90
2023-04-11T19:05:20.597Z,12.80
2023-04-11T19:07:48.874Z,12.40
2023-04-11T19:10:16.994Z,12.10
2023-04-11T19:12:45.109Z,12.00
2023-04-11T19:15:13.606Z,12.20
2023-04-11T19:17:41.717Z,12.10
2023-04-11T19:20:12.787Z,12.10
2023-04-11T19:22:42.892Z,12.20
2023-04-11T19:25:11.773Z,12.30
2023-04-11T19:27:41.506Z,12.40
2023-04-11T19:30:10.739Z,12.50
2023-04-11T19:32:42.877Z,12.30
2023-04-11T19:35:11.574Z,12.10
2023-04-11T19:37:39.701Z,11.70
2023-04-11T19:40:11.522Z,11.60
2023-04-11T19:42:40.275Z,11.60
2023-04-11T19:45:09.728Z,11.60
2023-04-11T19:47:39.204Z,11.40
2023-04-11T19:50:08.063Z,11.40
2023-04-11T19:52:36.409Z,11.40
2023-04-11T19:55:04.903Z,11.50
2023-04-11T19:57:34.740Z,11.60
2023-04-11T20:00:03.962Z,11.40
2023-04-11T20:02:33.218Z,11.30
2023-04-11T20:05:01.734Z,11.20
2023-04-11T20:07:29.966Z,11.20
2023-04-11T20:09:58.548Z,11.10
2023-04-11T20:12:26.761Z,11.00
2023-04-11T20:14:56.465Z,11.00
2023-04-11T20:17:24.695Z,11.20
2023-04-11T20:19:54.544Z,11.40
2023-04-11T20:22:25.691Z,11.40
2023-04-11T20:24:54.067Z,11.40
2023-04-11T20:27:22.244Z,11.50
2023-04-11T20:29:50.426Z,11.60
2023-04-11T20:32:20.650Z,11.70
2023-04-11T20:34:48.789Z,11.80
2023-04-11T20:37:18.783Z,11.70
2023-04-11T20:39:47.195Z,11.50
2023-04-11T20:42:15.334Z,11.40
2023-04-11T20:44:43.911Z,11.40
2023-04-11T20:47:12.080Z,11.40
2023-04-11T20:49:41.642Z,11.50
2023-04-11T20:52:09.952Z,11.50
2023-04-11T20:54:38.443Z,11.50
2023-04-11T20:57:06.985Z,11.30
2023-04-11T20:59:35.185Z,11.10
2023-04-11T21:02:03.679Z,11.00
2023-04-11T21:04:31.985Z,11.00
2023-04-11T21:07:06.115Z,11.10
2023-04-11T21:09:36.477Z,10.90
2023-04-11T21:12:05.074Z,11.00
2023-04-11T21:14:33.461Z,11.00
2023-04-11T21:17:01.598Z,11.20
2023-04-11T21:19:29.914Z,11.20
2023-04-11T21:21:58.555Z,11.30
2023-04-11T21:24:28.207Z,11.20
2023-04-11T21:26:56.744Z,11.10
2023-04-11T21:29:25.314Z,11.10
2023-04-11T21:31:53.686Z,11.00
2023-04-11T21:34:22.006Z,11.10
2023-04-11T21:36:50.731Z,11.00
2023-04-11T21:39:20.041Z,11.10
2023-04-11T21:41:50.340Z,11.10
2023-04-11T21:44:19.372Z,11.20
2023-04-11T21:46:48.696Z,11.10
2023-04-11T21:49:17.083Z,10.90
2023-04-11T21:51:45.554Z,11.00
2023-04-11T21:54:13.693Z,11.00
2023-04-11T21:56:43.684Z,11.10
2023-04-11T21:59:13.168Z,11.10
2023-04-11T22:01:41.751Z,11.00
2023-04-11T22:04:11.382Z,10.70
2023-04-11T22:06:46.284Z,10.70
2023-04-11T22:09:14.922Z,10.70
2023-04-11T22:11:43.188Z,10.80
2023-04-11T22:14:16.076Z,10.80
2023-04-11T22:16:49.261Z,10.80
2023-04-11T22:19:19.180Z,10.70
2023-04-11T22:21:48.770Z,10.80
2023-04-11T22:24:17.121Z,10.80
2023-04-11T22:26:49.263Z,10.70
2023-04-11T22:29:18.490Z,10.70
2023-04-11T22:31:49.785Z,10.80
2023-04-11T22:34:18.848Z,10.80
2023-04-11T22:36:46.967Z,10.90
2023-04-11T22:39:15.408Z,10.70
2023-04-11T22:41:47.710Z,10.70
2023-04-11T22:44:15.989Z,10.80
2023-04-11T22:46:44.692Z,10.70
2023-04-11T22:49:14.836Z,10.70
2023-04-11T22:51:43.295Z,10.80
2023-04-11T22:54:13.321Z,10.70
2023-04-11T22:56:42.096Z,10.70
2023-04-11T22:59:10.205Z,10.80
2023-04-11T23:01:38.696Z,10.70
2023-04-11T23:04:07.065Z,10.60
2023-04-11T23:06:36.661Z,10.60
2023-04-11T23:09:05.531Z,10.60
2023-04-11T23:11:33.744Z,10.70
2023-04-11T23:14:02.286Z,10.70
2023-04-11T23:16:30.586Z,10.80
2023-04-11T23:18:59.218Z,10.90
2023-04-11T23:21:27.446Z,10.70
2023-04-11T23:23:57.372Z,10.80
2023-04-11T23:26:25.763Z,10.80
2023-04-11T23:28:54.136Z,10.70
2023-04-11T23:31:22.829Z,10.70
2023-04-11T23:33:51.402Z,10.80
2023-04-11T23:36:19.576Z,10.90
2023-04-11T23:38:48.327Z,11.00
2023-04-11T23:41:17.806Z,11.00
2023-04-11T23:43:46.158Z,11.00
2023-04-11T23:46:15.072Z,10.90
2023-04-11T23:48:43.328Z,10.80
2023-04-11T23:51:11.454Z,10.70
2023-04-11T23:53:40.390Z,10.90
2023-04-11T23:56:09.103Z,10.90
2023-04-11T23:58:38.848Z,10.80
